sensor_id;sensor_type;location;lat;lon;timestamp;P1;durP1;ratioP1;P2;durP2;ratioP2
50932;SDS011;36921;49.006;9.292;2023-07-22T00:00:48;6.47;;;3.00;;
50932;SDS011;36921;49.006;9.292;2023-07-22T00:03:13;7.22;;;2.72;;
50932;SDS011;36921;49.006;9.292;2023-07-22T00:05:42;5.70;;;2.70;;
50932;SDS011;36921;49.006;9.292;2023-07-22T00:08:07;4.82;;;2.92;;
50932;SDS011;36921;49.006;9.292;2023-07-22T00:10:32;5.03;;;2.95;;
50932;SDS011;36921;49.006;9.292;2023-07-22T00:12:58;6.90;;;3.38;;
50932;SDS011;36921;49.006;9.292;2023-07-22T00:15:23;9.48;;;3.35;;
50932;SDS011;36921;49.006;9.292;2023-07-22T00:17:50;4.10;;;2.78;;
50932;SDS011;36921;49.006;9.292;2023-07-22T00:20:15;8.30;;;2.67;;
50932;SDS011;36921;49.006;9.292;2023-07-22T00:22:41;7.25;;;2.95;;
50932;SDS011;36921;49.006;9.292;2023-07-22T00:25:07;3.20;;;2.50;;
50932;SDS011;36921;49.006;9.292;2023-07-22T00:27:37;7.20;;;3.03;;
50932;SDS011;36921;49.006;9.292;2023-07-22T00:30:06;5.43;;;2.90;;
50932;SDS011;36921;49.006;9.292;2023-07-22T00:32:32;6.85;;;2.95;;
50932;SDS011;36921;49.006;9.292;2023-07-22T00:34:58;4.90;;;2.53;;
50932;SDS011;36921;49.006;9.292;2023-07-22T00:37:23;3.80;;;2.67;;
50932;SDS011;36921;49.006;9.292;2023-07-22T00:39:48;4.07;;;2.78;;
50932;SDS011;36921;49.006;9.292;2023-07-22T00:42:14;4.80;;;2.90;;
50932;SDS011;36921;49.006;9.292;2023-07-22T00:44:39;3.92;;;2.25;;
50932;SDS011;36921;49.006;9.292;2023-07-22T00:47:04;5.72;;;2.63;;
50932;SDS011;36921;49.006;9.292;2023-07-22T00:49:30;9.57;;;2.60;;
50932;SDS011;36921;49.006;9.292;2023-07-22T00:52:00;4.50;;;2.58;;
50932;SDS011;36921;49.006;9.292;2023-07-22T00:54:29;3.45;;;2.42;;
50932;SDS011;36921;49.006;9.292;2023-07-22T00:56:56;4.25;;;2.10;;
50932;SDS011;36921;49.006;9.292;2023-07-22T00:59:22;3.35;;;2.30;;
50932;SDS011;36921;49.006;9.292;2023-07-22T01:01:47;4.65;;;2.40;;
50932;SDS011;36921;49.006;9.292;2023-07-22T01:04:13;4.00;;;2.50;;
50932;SDS011;36921;49.006;9.292;2023-07-22T01:06:40;3.97;;;2.47;;
50932;SDS011;36921;49.006;9.292;2023-07-22T01:09:08;9.77;;;2.65;;
50932;SDS011;36921;49.006;9.292;2023-07-22T01:11:34;13.95;;;2.70;;
50932;SDS011;36921;49.006;9.292;2023-07-22T01:13:59;6.88;;;2.08;;
50932;SDS011;36921;49.006;9.292;2023-07-22T01:16:25;7.72;;;2.42;;
50932;SDS011;36921;49.006;9.292;2023-07-22T01:18:52;6.78;;;2.60;;
50932;SDS011;36921;49.006;9.292;2023-07-22T01:21:19;5.90;;;2.50;;
50932;SDS011;36921;49.006;9.292;2023-07-22T01:23:45;8.88;;;2.30;;
50932;SDS011;36921;49.006;9.292;2023-07-22T01:26:12;3.35;;;2.38;;
50932;SDS011;36921;49.006;9.292;2023-07-22T01:28:37;5.20;;;2.60;;
50932;SDS011;36921;49.006;9.292;2023-07-22T01:31:03;6.20;;;2.30;;
50932;SDS011;36921;49.006;9.292;2023-07-22T01:33:30;3.38;;;2.65;;
50932;SDS011;36921;49.006;9.292;2023-07-22T01:35:55;6.07;;;2.40;;
50932;SDS011;36921;49.006;9.292;2023-07-22T01:38:21;4.43;;;2.55;;
50932;SDS011;36921;49.006;9.292;2023-07-22T01:40:46;6.03;;;2.78;;
50932;SDS011;36921;49.006;9.292;2023-07-22T01:43:12;5.20;;;2.97;;
50932;SDS011;36921;49.006;9.292;2023-07-22T01:45:38;6.30;;;2.95;;
50932;SDS011;36921;49.006;9.292;2023-07-22T01:48:04;4.60;;;2.45;;
50932;SDS011;36921;49.006;9.292;2023-07-22T01:50:31;6.75;;;2.65;;
50932;SDS011;36921;49.006;9.292;2023-07-22T01:52:56;7.50;;;2.53;;
50932;SDS011;36921;49.006;9.292;2023-07-22T01:55:21;7.65;;;3.05;;
50932;SDS011;36921;49.006;9.292;2023-07-22T01:57:47;5.82;;;3.08;;
50932;SDS011;36921;49.006;9.292;2023-07-22T02:00:12;4.70;;;3.00;;
50932;SDS011;36921;49.006;9.292;2023-07-22T02:02:40;10.13;;;2.85;;
50932;SDS011;36921;49.006;9.292;2023-07-22T02:05:06;5.78;;;2.70;;
50932;SDS011;36921;49.006;9.292;2023-07-22T02:07:31;6.88;;;3.13;;
50932;SDS011;36921;49.006;9.292;2023-07-22T02:09:57;6.13;;;3.78;;
50932;SDS011;36921;49.006;9.292;2023-07-22T02:12:23;4.28;;;3.00;;
50932;SDS011;36921;49.006;9.292;2023-07-22T02:14:48;5.18;;;3.30;;
50932;SDS011;36921;49.006;9.292;2023-07-22T02:17:13;3.80;;;2.80;;
50932;SDS011;36921;49.006;9.292;2023-07-22T02:19:38;8.93;;;3.30;;
50932;SDS011;36921;49.006;9.292;2023-07-22T02:22:04;9.20;;;3.22;;
50932;SDS011;36921;49.006;9.292;2023-07-22T02:24:30;4.18;;;2.72;;
50932;SDS011;36921;49.006;9.292;2023-07-22T02:26:55;6.13;;;3.15;;
50932;SDS011;36921;49.006;9.292;2023-07-22T02:29:21;4.57;;;2.70;;
50932;SDS011;36921;49.006;9.292;2023-07-22T02:31:46;4.07;;;3.10;;
50932;SDS011;36921;49.006;9.292;2023-07-22T02:34:11;4.38;;;3.20;;
50932;SDS011;36921;49.006;9.292;2023-07-22T02:36:37;5.07;;;3.00;;
50932;SDS011;36921;49.006;9.292;2023-07-22T02:39:02;4.80;;;3.50;;
50932;SDS011;36921;49.006;9.292;2023-07-22T02:41:28;5.18;;;2.95;;
50932;SDS011;36921;49.006;9.292;2023-07-22T02:43:53;3.78;;;2.70;;
50932;SDS011;36921;49.006;9.292;2023-07-22T02:46:19;9.30;;;3.20;;
50932;SDS011;36921;49.006;9.292;2023-07-22T02:48:44;4.75;;;2.95;;
50932;SDS011;36921;49.006;9.292;2023-07-22T02:51:09;9.70;;;3.28;;
50932;SDS011;36921;49.006;9.292;2023-07-22T02:53:38;4.80;;;3.20;;
50932;SDS011;36921;49.006;9.292;2023-07-22T02:56:06;5.43;;;2.75;;
50932;SDS011;36921;49.006;9.292;2023-07-22T02:58:32;6.53;;;3.40;;
50932;SDS011;36921;49.006;9.292;2023-07-22T03:00:58;6.13;;;3.13;;
50932;SDS011;36921;49.006;9.292;2023-07-22T03:03:24;4.88;;;3.03;;
50932;SDS011;36921;49.006;9.292;2023-07-22T03:05:49;8.43;;;2.22;;
50932;SDS011;36921;49.006;9.292;2023-07-22T03:08:14;5.05;;;2.70;;
50932;SDS011;36921;49.006;9.292;2023-07-22T03:10:40;6.88;;;2.95;;
50932;SDS011;36921;49.006;9.292;2023-07-22T03:13:06;9.77;;;3.40;;
50932;SDS011;36921;49.006;9.292;2023-07-22T03:15:32;4.60;;;3.15;;
50932;SDS011;36921;49.006;9.292;2023-07-22T03:17:57;7.32;;;3.22;;
50932;SDS011;36921;49.006;9.292;2023-07-22T03:20:24;6.15;;;3.05;;
50932;SDS011;36921;49.006;9.292;2023-07-22T03:22:50;4.70;;;3.22;;
50932;SDS011;36921;49.006;9.292;2023-07-22T03:25:16;6.28;;;3.38;;
50932;SDS011;36921;49.006;9.292;2023-07-22T03:27:42;9.35;;;3.65;;
50932;SDS011;36921;49.006;9.292;2023-07-22T03:30:10;7.43;;;4.18;;
50932;SDS011;36921;49.006;9.292;2023-07-22T03:32:39;6.47;;;3.53;;
50932;SDS011;36921;49.006;9.292;2023-07-22T03:35:09;5.70;;;2.95;;
50932;SDS011;36921;49.006;9.292;2023-07-22T03:37:35;5.47;;;3.15;;
50932;SDS011;36921;49.006;9.292;2023-07-22T03:40:01;4.53;;;2.95;;
50932;SDS011;36921;49.006;9.292;2023-07-22T03:42:29;9.00;;;3.10;;
50932;SDS011;36921;49.006;9.292;2023-07-22T03:44:54;4.93;;;3.10;;
50932;SDS011;36921;49.006;9.292;2023-07-22T03:47:19;7.68;;;3.08;;
50932;SDS011;36921;49.006;9.292;2023-07-22T03:49:44;4.60;;;2.90;;
50932;SDS011;36921;49.006;9.292;2023-07-22T03:52:10;11.20;;;3.58;;
50932;SDS011;36921;49.006;9.292;2023-07-22T03:54:39;7.75;;;3.10;;
50932;SDS011;36921;49.006;9.292;2023-07-22T03:57:04;4.80;;;3.10;;
50932;SDS011;36921;49.006;9.292;2023-07-22T03:59:29;4.20;;;2.75;;
50932;SDS011;36921;49.006;9.292;2023-07-22T04:01:55;9.57;;;3.03;;
50932;SDS011;36921;49.006;9.292;2023-07-22T04:04:20;4.20;;;2.67;;
50932;SDS011;36921;49.006;9.292;2023-07-22T04:06:45;4.60;;;2.70;;
50932;SDS011;36921;49.006;9.292;2023-07-22T04:09:11;5.45;;;2.97;;
50932;SDS011;36921;49.006;9.292;2023-07-22T04:11:36;4.68;;;3.20;;
50932;SDS011;36921;49.006;9.292;2023-07-22T04:14:02;2.95;;;2.42;;
50932;SDS011;36921;49.006;9.292;2023-07-22T04:16:28;4.63;;;2.78;;
50932;SDS011;36921;49.006;9.292;2023-07-22T04:18:54;4.15;;;2.40;;
50932;SDS011;36921;49.006;9.292;2023-07-22T04:21:19;5.13;;;3.00;;
50932;SDS011;36921;49.006;9.292;2023-07-22T04:23:45;6.03;;;3.17;;
50932;SDS011;36921;49.006;9.292;2023-07-22T04:26:10;6.07;;;2.83;;
50932;SDS011;36921;49.006;9.292;2023-07-22T04:28:35;8.00;;;2.88;;
50932;SDS011;36921;49.006;9.292;2023-07-22T04:31:01;9.88;;;3.90;;
50932;SDS011;36921;49.006;9.292;2023-07-22T04:33:27;6.30;;;2.67;;
50932;SDS011;36921;49.006;9.292;2023-07-22T04:35:57;7.90;;;2.88;;
50932;SDS011;36921;49.006;9.292;2023-07-22T04:38:23;4.90;;;2.63;;
50932;SDS011;36921;49.006;9.292;2023-07-22T04:40:50;6.43;;;2.67;;
50932;SDS011;36921;49.006;9.292;2023-07-22T04:43:15;5.25;;;2.40;;
50932;SDS011;36921;49.006;9.292;2023-07-22T04:45:44;6.05;;;2.47;;
50932;SDS011;36921;49.006;9.292;2023-07-22T04:48:09;6.75;;;2.83;;
50932;SDS011;36921;49.006;9.292;2023-07-22T04:50:36;5.78;;;2.78;;
50932;SDS011;36921;49.006;9.292;2023-07-22T04:53:02;3.38;;;2.38;;
50932;SDS011;36921;49.006;9.292;2023-07-22T04:55:27;3.75;;;2.53;;
50932;SDS011;36921;49.006;9.292;2023-07-22T04:57:54;3.25;;;1.95;;
50932;SDS011;36921;49.006;9.292;2023-07-22T05:00:20;3.88;;;2.25;;
50932;SDS011;36921;49.006;9.292;2023-07-22T05:02:48;3.92;;;2.25;;
50932;SDS011;36921;49.006;9.292;2023-07-22T05:05:14;4.07;;;2.43;;
50932;SDS011;36921;49.006;9.292;2023-07-22T05:07:42;4.55;;;2.40;;
50932;SDS011;36921;49.006;9.292;2023-07-22T05:10:09;3.92;;;2.15;;
50932;SDS011;36921;49.006;9.292;2023-07-22T05:15:06;5.90;;;2.95;;
50932;SDS011;36921;49.006;9.292;2023-07-22T05:17:32;4.68;;;2.55;;
50932;SDS011;36921;49.006;9.292;2023-07-22T05:19:57;4.72;;;2.83;;
50932;SDS011;36921;49.006;9.292;2023-07-22T05:22:23;4.93;;;2.42;;
50932;SDS011;36921;49.006;9.292;2023-07-22T05:24:48;4.45;;;2.60;;
50932;SDS011;36921;49.006;9.292;2023-07-22T05:27:14;6.43;;;2.60;;
50932;SDS011;36921;49.006;9.292;2023-07-22T05:29:39;4.03;;;2.70;;
50932;SDS011;36921;49.006;9.292;2023-07-22T05:32:05;3.65;;;2.33;;
50932;SDS011;36921;49.006;9.292;2023-07-22T05:34:31;4.43;;;2.15;;
50932;SDS011;36921;49.006;9.292;2023-07-22T05:36:56;5.35;;;2.30;;
50932;SDS011;36921;49.006;9.292;2023-07-22T05:39:21;4.22;;;1.67;;
50932;SDS011;36921;49.006;9.292;2023-07-22T05:41:46;2.92;;;2.00;;
50932;SDS011;36921;49.006;9.292;2023-07-22T05:44:12;4.10;;;2.05;;
50932;SDS011;36921;49.006;9.292;2023-07-22T05:46:37;3.17;;;1.88;;
50932;SDS011;36921;49.006;9.292;2023-07-22T05:49:03;4.57;;;2.33;;
50932;SDS011;36921;49.006;9.292;2023-07-22T05:51:28;3.03;;;1.73;;
50932;SDS011;36921;49.006;9.292;2023-07-22T05:53:54;3.58;;;2.20;;
50932;SDS011;36921;49.006;9.292;2023-07-22T05:56:19;4.50;;;2.45;;
50932;SDS011;36921;49.006;9.292;2023-07-22T05:58:44;4.60;;;2.20;;
50932;SDS011;36921;49.006;9.292;2023-07-22T06:01:10;5.82;;;2.30;;
50932;SDS011;36921;49.006;9.292;2023-07-22T06:03:36;7.15;;;2.55;;
50932;SDS011;36921;49.006;9.292;2023-07-22T06:06:02;5.22;;;2.22;;
50932;SDS011;36921;49.006;9.292;2023-07-22T06:08:27;3.35;;;2.15;;
50932;SDS011;36921;49.006;9.292;2023-07-22T06:10:52;3.08;;;1.92;;
50932;SDS011;36921;49.006;9.292;2023-07-22T06:13:18;7.03;;;2.30;;
50932;SDS011;36921;49.006;9.292;2023-07-22T06:15:43;6.97;;;2.75;;
50932;SDS011;36921;49.006;9.292;2023-07-22T06:18:08;5.13;;;2.30;;
50932;SDS011;36921;49.006;9.292;2023-07-22T06:20:34;3.67;;;1.83;;
50932;SDS011;36921;49.006;9.292;2023-07-22T06:23:01;3.65;;;1.55;;
50932;SDS011;36921;49.006;9.292;2023-07-22T06:25:27;3.85;;;1.90;;
50932;SDS011;36921;49.006;9.292;2023-07-22T06:27:52;8.93;;;1.80;;
50932;SDS011;36921;49.006;9.292;2023-07-22T06:30:19;2.10;;;1.52;;
50932;SDS011;36921;49.006;9.292;2023-07-22T06:32:44;2.45;;;1.40;;
50932;SDS011;36921;49.006;9.292;2023-07-22T06:35:10;9.90;;;1.73;;
50932;SDS011;36921;49.006;9.292;2023-07-22T06:37:35;4.28;;;1.58;;
50932;SDS011;36921;49.006;9.292;2023-07-22T06:40:00;4.18;;;1.60;;
50932;SDS011;36921;49.006;9.292;2023-07-22T06:42:27;3.17;;;1.65;;
50932;SDS011;36921;49.006;9.292;2023-07-22T06:44:52;3.33;;;1.42;;
50932;SDS011;36921;49.006;9.292;2023-07-22T06:47:18;5.88;;;1.60;;
50932;SDS011;36921;49.006;9.292;2023-07-22T06:49:43;2.83;;;1.70;;
50932;SDS011;36921;49.006;9.292;2023-07-22T06:52:08;3.47;;;1.48;;
50932;SDS011;36921;49.006;9.292;2023-07-22T06:54:34;5.18;;;1.63;;
50932;SDS011;36921;49.006;9.292;2023-07-22T06:57:00;4.20;;;1.67;;
50932;SDS011;36921;49.006;9.292;2023-07-22T06:59:26;2.65;;;1.45;;
50932;SDS011;36921;49.006;9.292;2023-07-22T07:01:52;2.75;;;1.40;;
50932;SDS011;36921;49.006;9.292;2023-07-22T07:04:17;2.45;;;1.70;;
50932;SDS011;36921;49.006;9.292;2023-07-22T07:06:43;2.85;;;1.40;;
50932;SDS011;36921;49.006;9.292;2023-07-22T07:09:08;2.45;;;1.52;;
50932;SDS011;36921;49.006;9.292;2023-07-22T07:11:33;3.20;;;1.60;;
50932;SDS011;36921;49.006;9.292;2023-07-22T07:13:59;3.38;;;1.48;;
50932;SDS011;36921;49.006;9.292;2023-07-22T07:16:30;4.65;;;1.90;;
50932;SDS011;36921;49.006;9.292;2023-07-22T07:18:57;2.15;;;1.35;;
50932;SDS011;36921;49.006;9.292;2023-07-22T07:21:23;2.33;;;1.30;;
50932;SDS011;36921;49.006;9.292;2023-07-22T07:23:49;2.35;;;1.55;;
50932;SDS011;36921;49.006;9.292;2023-07-22T07:26:14;1.67;;;1.23;;
50932;SDS011;36921;49.006;9.292;2023-07-22T07:28:40;3.22;;;1.30;;
50932;SDS011;36921;49.006;9.292;2023-07-22T07:31:06;3.08;;;1.50;;
50932;SDS011;36921;49.006;9.292;2023-07-22T07:33:31;2.20;;;1.20;;
50932;SDS011;36921;49.006;9.292;2023-07-22T07:35:57;2.08;;;1.40;;
50932;SDS011;36921;49.006;9.292;2023-07-22T07:38:22;3.78;;;1.50;;
50932;SDS011;36921;49.006;9.292;2023-07-22T07:40:52;3.40;;;1.67;;
50932;SDS011;36921;49.006;9.292;2023-07-22T07:43:18;5.00;;;1.45;;
50932;SDS011;36921;49.006;9.292;2023-07-22T07:45:44;1.67;;;1.20;;
50932;SDS011;36921;49.006;9.292;2023-07-22T07:48:09;2.65;;;1.30;;
50932;SDS011;36921;49.006;9.292;2023-07-22T07:50:35;4.00;;;1.30;;
50932;SDS011;36921;49.006;9.292;2023-07-22T07:53:00;5.13;;;1.30;;
50932;SDS011;36921;49.006;9.292;2023-07-22T07:55:26;2.03;;;1.35;;
50932;SDS011;36921;49.006;9.292;2023-07-22T07:57:51;3.28;;;1.20;;
50932;SDS011;36921;49.006;9.292;2023-07-22T08:00:16;3.00;;;1.30;;
50932;SDS011;36921;49.006;9.292;2023-07-22T08:02:42;4.20;;;1.40;;
50932;SDS011;36921;49.006;9.292;2023-07-22T08:05:08;2.90;;;1.27;;
50932;SDS011;36921;49.006;9.292;2023-07-22T08:07:33;2.67;;;1.40;;
50932;SDS011;36921;49.006;9.292;2023-07-22T08:10:00;5.05;;;1.77;;
50932;SDS011;36921;49.006;9.292;2023-07-22T08:12:26;5.20;;;1.33;;
50932;SDS011;36921;49.006;9.292;2023-07-22T08:14:52;4.78;;;1.10;;
50932;SDS011;36921;49.006;9.292;2023-07-22T08:17:18;3.38;;;1.50;;
50932;SDS011;36921;49.006;9.292;2023-07-22T08:19:43;3.05;;;1.10;;
50932;SDS011;36921;49.006;9.292;2023-07-22T08:22:09;2.42;;;1.25;;
50932;SDS011;36921;49.006;9.292;2023-07-22T08:24:34;2.42;;;1.40;;
50932;SDS011;36921;49.006;9.292;2023-07-22T08:27:00;2.58;;;1.20;;
50932;SDS011;36921;49.006;9.292;2023-07-22T08:29:25;3.78;;;1.33;;
50932;SDS011;36921;49.006;9.292;2023-07-22T08:31:50;4.70;;;1.63;;
50932;SDS011;36921;49.006;9.292;2023-07-22T08:34:16;3.22;;;1.30;;
50932;SDS011;36921;49.006;9.292;2023-07-22T08:36:41;2.13;;;1.20;;
50932;SDS011;36921;49.006;9.292;2023-07-22T08:39:07;1.98;;;1.05;;
50932;SDS011;36921;49.006;9.292;2023-07-22T08:41:32;1.77;;;0.90;;
50932;SDS011;36921;49.006;9.292;2023-07-22T08:43:59;2.85;;;1.30;;
50932;SDS011;36921;49.006;9.292;2023-07-22T08:46:27;2.08;;;1.10;;
50932;SDS011;36921;49.006;9.292;2023-07-22T08:48:55;1.63;;;1.00;;
50932;SDS011;36921;49.006;9.292;2023-07-22T08:51:24;2.33;;;1.17;;
50932;SDS011;36921;49.006;9.292;2023-07-22T08:53:53;2.88;;;1.17;;
50932;SDS011;36921;49.006;9.292;2023-07-22T08:56:22;2.88;;;1.10;;
50932;SDS011;36921;49.006;9.292;2023-07-22T09:01:16;2.08;;;1.20;;
50932;SDS011;36921;49.006;9.292;2023-07-22T09:03:41;2.92;;;0.93;;
50932;SDS011;36921;49.006;9.292;2023-07-22T09:06:07;4.45;;;1.23;;
50932;SDS011;36921;49.006;9.292;2023-07-22T09:08:33;5.30;;;1.23;;
50932;SDS011;36921;49.006;9.292;2023-07-22T09:10:58;2.15;;;1.40;;
50932;SDS011;36921;49.006;9.292;2023-07-22T09:13:26;1.67;;;1.10;;
50932;SDS011;36921;49.006;9.292;2023-07-22T09:15:52;1.88;;;1.08;;
50932;SDS011;36921;49.006;9.292;2023-07-22T09:18:18;1.38;;;1.00;;
50932;SDS011;36921;49.006;9.292;2023-07-22T09:20:44;2.53;;;1.10;;
50932;SDS011;36921;49.006;9.292;2023-07-22T09:23:09;1.92;;;1.00;;
50932;SDS011;36921;49.006;9.292;2023-07-22T09:25:36;2.33;;;0.70;;
50932;SDS011;36921;49.006;9.292;2023-07-22T09:28:01;2.50;;;1.27;;
50932;SDS011;36921;49.006;9.292;2023-07-22T09:30:30;2.70;;;1.02;;
50932;SDS011;36921;49.006;9.292;2023-07-22T09:32:59;2.72;;;0.90;;
50932;SDS011;36921;49.006;9.292;2023-07-22T09:35:26;2.35;;;0.90;;
50932;SDS011;36921;49.006;9.292;2023-07-22T09:37:54;0.90;;;0.73;;
50932;SDS011;36921;49.006;9.292;2023-07-22T09:40:20;6.20;;;1.00;;
50932;SDS011;36921;49.006;9.292;2023-07-22T09:42:48;2.08;;;0.90;;
50932;SDS011;36921;49.006;9.292;2023-07-22T09:45:18;2.00;;;0.88;;
50932;SDS011;36921;49.006;9.292;2023-07-22T09:50:15;1.73;;;0.98;;
50932;SDS011;36921;49.006;9.292;2023-07-22T09:52:47;1.83;;;0.93;;
50932;SDS011;36921;49.006;9.292;2023-07-22T09:55:17;1.45;;;1.00;;
50932;SDS011;36921;49.006;9.292;2023-07-22T09:57:49;2.20;;;1.05;;
50932;SDS011;36921;49.006;9.292;2023-07-22T10:02:43;3.15;;;0.98;;
50932;SDS011;36921;49.006;9.292;2023-07-22T10:05:14;2.58;;;0.98;;
50932;SDS011;36921;49.006;9.292;2023-07-22T10:07:44;3.20;;;1.00;;
50932;SDS011;36921;49.006;9.292;2023-07-22T10:10:18;1.58;;;1.00;;
50932;SDS011;36921;49.006;9.292;2023-07-22T10:12:45;2.42;;;1.15;;
50932;SDS011;36921;49.006;9.292;2023-07-22T10:15:12;1.40;;;0.90;;
50932;SDS011;36921;49.006;9.292;2023-07-22T10:17:39;2.42;;;1.00;;
50932;SDS011;36921;49.006;9.292;2023-07-22T10:20:07;1.00;;;0.80;;
50932;SDS011;36921;49.006;9.292;2023-07-22T10:22:40;2.00;;;0.88;;
50932;SDS011;36921;49.006;9.292;2023-07-22T10:25:10;1.90;;;0.90;;
50932;SDS011;36921;49.006;9.292;2023-07-22T10:27:36;1.75;;;0.80;;
50932;SDS011;36921;49.006;9.292;2023-07-22T10:30:05;2.42;;;1.15;;
50932;SDS011;36921;49.006;9.292;2023-07-22T10:32:41;1.42;;;0.88;;
50932;SDS011;36921;49.006;9.292;2023-07-22T10:36:01;1.33;;;0.73;;
50932;SDS011;36921;49.006;9.292;2023-07-22T10:45:44;1.48;;;0.95;;
50932;SDS011;36921;49.006;9.292;2023-07-22T10:48:17;1.55;;;1.08;;
50932;SDS011;36921;49.006;9.292;2023-07-22T10:53:27;2.87;;;0.73;;
50932;SDS011;36921;49.006;9.292;2023-07-22T11:11:52;1.73;;;0.93;;
50932;SDS011;36921;49.006;9.292;2023-07-22T11:14:25;2.92;;;0.98;;
50932;SDS011;36921;49.006;9.292;2023-07-22T11:16:51;6.43;;;0.90;;
50932;SDS011;36921;49.006;9.292;2023-07-22T11:19:18;0.90;;;0.68;;
50932;SDS011;36921;49.006;9.292;2023-07-22T11:21:45;1.45;;;1.02;;
50932;SDS011;36921;49.006;9.292;2023-07-22T11:24:12;1.83;;;0.90;;
50932;SDS011;36921;49.006;9.292;2023-07-22T11:26:38;1.52;;;0.90;;
50932;SDS011;36921;49.006;9.292;2023-07-22T11:29:05;2.10;;;1.05;;
50932;SDS011;36921;49.006;9.292;2023-07-22T11:34:02;1.60;;;0.90;;
50932;SDS011;36921;49.006;9.292;2023-07-22T11:36:28;1.10;;;0.65;;
50932;SDS011;36921;49.006;9.292;2023-07-22T11:38:54;2.03;;;1.40;;
50932;SDS011;36921;49.006;9.292;2023-07-22T11:41:26;1.00;;;0.70;;
50932;SDS011;36921;49.006;9.292;2023-07-22T11:43:52;1.02;;;0.80;;
50932;SDS011;36921;49.006;9.292;2023-07-22T11:46:17;1.60;;;0.70;;
50932;SDS011;36921;49.006;9.292;2023-07-22T11:48:52;3.53;;;0.70;;
50932;SDS011;36921;49.006;9.292;2023-07-22T11:51:22;0.80;;;0.70;;
50932;SDS011;36921;49.006;9.292;2023-07-22T11:53:49;1.83;;;1.00;;
50932;SDS011;36921;49.006;9.292;2023-07-22T11:56:22;1.90;;;1.15;;
50932;SDS011;36921;49.006;9.292;2023-07-22T11:58:59;1.85;;;0.90;;
50932;SDS011;36921;49.006;9.292;2023-07-22T12:01:28;3.13;;;0.63;;
50932;SDS011;36921;49.006;9.292;2023-07-22T12:03:57;2.13;;;0.60;;
50932;SDS011;36921;49.006;9.292;2023-07-22T12:06:24;0.88;;;0.70;;
50932;SDS011;36921;49.006;9.292;2023-07-22T12:08:51;1.77;;;0.75;;
50932;SDS011;36921;49.006;9.292;2023-07-22T12:11:21;0.90;;;0.68;;
50932;SDS011;36921;49.006;9.292;2023-07-22T12:14:10;2.50;;;0.93;;
50932;SDS011;36921;49.006;9.292;2023-07-22T12:16:39;4.75;;;1.30;;
50932;SDS011;36921;49.006;9.292;2023-07-22T12:19:06;2.03;;;1.00;;
50932;SDS011;36921;49.006;9.292;2023-07-22T12:21:34;3.25;;;1.40;;
50932;SDS011;36921;49.006;9.292;2023-07-22T12:24:00;1.52;;;0.90;;
50932;SDS011;36921;49.006;9.292;2023-07-22T12:26:27;3.30;;;1.20;;
50932;SDS011;36921;49.006;9.292;2023-07-22T12:28:52;4.82;;;1.10;;
50932;SDS011;36921;49.006;9.292;2023-07-22T12:31:18;1.05;;;0.70;;
50932;SDS011;36921;49.006;9.292;2023-07-22T12:33:43;1.73;;;1.00;;
50932;SDS011;36921;49.006;9.292;2023-07-22T12:36:09;1.08;;;0.75;;
50932;SDS011;36921;49.006;9.292;2023-07-22T12:38:34;1.50;;;0.73;;
50932;SDS011;36921;49.006;9.292;2023-07-22T12:41:00;2.78;;;0.93;;
50932;SDS011;36921;49.006;9.292;2023-07-22T12:43:26;1.52;;;0.90;;
50932;SDS011;36921;49.006;9.292;2023-07-22T12:45:52;2.15;;;1.10;;
50932;SDS011;36921;49.006;9.292;2023-07-22T12:48:17;1.08;;;0.82;;
50932;SDS011;36921;49.006;9.292;2023-07-22T12:50:43;1.50;;;1.10;;
50932;SDS011;36921;49.006;9.292;2023-07-22T12:53:09;1.80;;;1.00;;
50932;SDS011;36921;49.006;9.292;2023-07-22T12:55:34;1.48;;;0.93;;
50932;SDS011;36921;49.006;9.292;2023-07-22T12:58:00;1.02;;;0.75;;
50932;SDS011;36921;49.006;9.292;2023-07-22T13:00:25;2.08;;;0.98;;
50932;SDS011;36921;49.006;9.292;2023-07-22T13:02:51;5.72;;;0.95;;
50932;SDS011;36921;49.006;9.292;2023-07-22T13:05:16;1.42;;;0.85;;
50932;SDS011;36921;49.006;9.292;2023-07-22T13:07:41;2.17;;;1.00;;
50932;SDS011;36921;49.006;9.292;2023-07-22T13:10:07;1.08;;;0.93;;
50932;SDS011;36921;49.006;9.292;2023-07-22T13:12:36;2.58;;;1.10;;
50932;SDS011;36921;49.006;9.292;2023-07-22T13:15:04;2.58;;;0.90;;
50932;SDS011;36921;49.006;9.292;2023-07-22T13:17:31;2.83;;;1.27;;
50932;SDS011;36921;49.006;9.292;2023-07-22T13:19:57;1.58;;;1.17;;
50932;SDS011;36921;49.006;9.292;2023-07-22T13:22:22;3.42;;;1.05;;
50932;SDS011;36921;49.006;9.292;2023-07-22T13:24:48;1.95;;;1.08;;
50932;SDS011;36921;49.006;9.292;2023-07-22T13:27:14;1.58;;;1.13;;
50932;SDS011;36921;49.006;9.292;2023-07-22T13:29:40;2.20;;;0.98;;
50932;SDS011;36921;49.006;9.292;2023-07-22T13:32:05;1.27;;;0.80;;
50932;SDS011;36921;49.006;9.292;2023-07-22T13:34:31;1.83;;;1.02;;
50932;SDS011;36921;49.006;9.292;2023-07-22T13:36:57;3.33;;;1.23;;
50932;SDS011;36921;49.006;9.292;2023-07-22T13:39:23;2.40;;;1.15;;
50932;SDS011;36921;49.006;9.292;2023-07-22T13:41:48;1.67;;;1.08;;
50932;SDS011;36921;49.006;9.292;2023-07-22T13:44:14;2.40;;;1.20;;
50932;SDS011;36921;49.006;9.292;2023-07-22T13:46:39;1.63;;;0.90;;
50932;SDS011;36921;49.006;9.292;2023-07-22T13:49:05;2.33;;;1.13;;
50932;SDS011;36921;49.006;9.292;2023-07-22T13:51:30;2.58;;;1.17;;
50932;SDS011;36921;49.006;9.292;2023-07-22T13:53:56;2.25;;;1.13;;
50932;SDS011;36921;49.006;9.292;2023-07-22T13:56:23;1.60;;;1.02;;
50932;SDS011;36921;49.006;9.292;2023-07-22T13:58:49;0.95;;;0.80;;
50932;SDS011;36921;49.006;9.292;2023-07-22T14:01:14;2.22;;;1.30;;
50932;SDS011;36921;49.006;9.292;2023-07-22T14:03:39;2.63;;;1.30;;
50932;SDS011;36921;49.006;9.292;2023-07-22T14:06:05;2.97;;;1.48;;
50932;SDS011;36921;49.006;9.292;2023-07-22T14:08:30;2.55;;;1.30;;
50932;SDS011;36921;49.006;9.292;2023-07-22T14:10:56;1.95;;;1.30;;
50932;SDS011;36921;49.006;9.292;2023-07-22T14:13:21;2.13;;;1.30;;
50932;SDS011;36921;49.006;9.292;2023-07-22T14:15:46;2.35;;;1.40;;
50932;SDS011;36921;49.006;9.292;2023-07-22T14:18:12;3.13;;;1.25;;
50932;SDS011;36921;49.006;9.292;2023-07-22T14:20:42;3.78;;;1.77;;
50932;SDS011;36921;49.006;9.292;2023-07-22T14:23:10;3.25;;;1.60;;
50932;SDS011;36921;49.006;9.292;2023-07-22T14:25:36;2.58;;;1.70;;
50932;SDS011;36921;49.006;9.292;2023-07-22T14:28:01;2.30;;;1.25;;
50932;SDS011;36921;49.006;9.292;2023-07-22T14:30:27;3.03;;;1.65;;
50932;SDS011;36921;49.006;9.292;2023-07-22T14:32:53;2.83;;;1.60;;
50932;SDS011;36921;49.006;9.292;2023-07-22T14:35:18;4.55;;;1.40;;
50932;SDS011;36921;49.006;9.292;2023-07-22T14:37:43;3.03;;;1.60;;
50932;SDS011;36921;49.006;9.292;2023-07-22T14:40:10;1.90;;;1.20;;
50932;SDS011;36921;49.006;9.292;2023-07-22T14:42:36;3.53;;;1.50;;
50932;SDS011;36921;49.006;9.292;2023-07-22T14:45:01;2.90;;;1.67;;
50932;SDS011;36921;49.006;9.292;2023-07-22T14:47:27;2.65;;;1.50;;
50932;SDS011;36921;49.006;9.292;2023-07-22T14:49:52;1.73;;;1.25;;
50932;SDS011;36921;49.006;9.292;2023-07-22T14:52:17;2.80;;;1.55;;
50932;SDS011;36921;49.006;9.292;2023-07-22T14:54:43;1.92;;;1.42;;
50932;SDS011;36921;49.006;9.292;2023-07-22T14:57:08;2.35;;;1.42;;
50932;SDS011;36921;49.006;9.292;2023-07-22T14:59:34;1.95;;;1.40;;
50932;SDS011;36921;49.006;9.292;2023-07-22T15:01:59;2.15;;;1.58;;
50932;SDS011;36921;49.006;9.292;2023-07-22T15:04:24;5.97;;;1.60;;
50932;SDS011;36921;49.006;9.292;2023-07-22T15:06:50;2.15;;;1.35;;
50932;SDS011;36921;49.006;9.292;2023-07-22T15:09:15;2.63;;;1.40;;
50932;SDS011;36921;49.006;9.292;2023-07-22T15:11:41;2.75;;;1.58;;
50932;SDS011;36921;49.006;9.292;2023-07-22T15:14:06;4.13;;;1.65;;
50932;SDS011;36921;49.006;9.292;2023-07-22T15:16:32;5.15;;;1.33;;
50932;SDS011;36921;49.006;9.292;2023-07-22T15:18:57;5.32;;;1.83;;
50932;SDS011;36921;49.006;9.292;2023-07-22T15:21:23;2.78;;;1.50;;